Time;durP1;ratioP1;P1;durP2;ratioP2;P2;SDS_P1;SDS_P2;PMS_P1;PMS_P2;Temp;Humidity;BMP_temperature;BMP_pressure;BME280_temperature;BME280_humidity;BME280_pressure;Samples;Min_cycle;Max_cycle;Signal;HPM_P1;HPM_P2
2023/01/11 00:01:33;;;;;;;;;;;;;;;;;;5064553;28;19913;-64
2023/01/11 00:03:58;;;;;;;;;;;;;;;;;;5073541;28;19913;-64
2023/01/11 00:06:23;;;;;;;;;;;;;;;;;;5069506;28;19912;-63
2023/01/11 00:08:48;;;;;;;;;;;;;;;;;;5072712;28;19939;-64
2023/01/11 00:11:14;;;;;;;;;;;;;;;;;;5069717;28;19935;-64
2023/01/11 00:13:39;;;;;;;;;;;;;;;;;;5075773;28;19991;-63
2023/01/11 00:16:04;;;;;;;;;;;;;;;;;;5074831;28;19919;-63
2023/01/11 00:18:29;;;;;;;;;;;;;;;;;;5074102;28;19959;-62
2023/01/11 00:20:54;;;;;;;;;;;;;;;;;;5071903;28;19912;-62
2023/01/11 00:23:20;;;;;;;;;;;;;;;;;;5064375;28;19913;-62
2023/01/11 00:25:45;;;;;;;;;;;;;;;;;;5074079;28;19912;-63
2023/01/11 00:28:10;;;;;;;;;;;;;;;;;;5073957;28;19920;-63
2023/01/11 00:30:36;;;;;;;;;;;;;;;;;;5081158;28;20003;-63
2023/01/11 00:33:01;;;;;;;;;;;;;;;;;;5064652;28;19920;-63
2023/01/11 00:35:26;;;;;;;;;;;;;;;;;;5063620;28;19939;-62
2023/01/11 00:37:51;;;;;;;;;;;;;;;;;;5071257;28;19916;-63
2023/01/11 00:40:16;;;;;;;;;;;;;;;;;;5070700;28;20045;-64
2023/01/11 00:48:09;;;;;;;;;;;;;;;;;;5073511;28;20047;-63
2023/01/11 00:50:34;;;;;;;;;;;;;;;;;;5065279;28;20424;-64
2023/01/11 00:53:00;;;;;;;;;;;;;;;;;;5071345;28;20378;-63
2023/01/11 00:55:25;;;;;;;;;;;;;;;;;;5072995;28;19999;-63
2023/01/11 00:57:50;;;;;;;;;;;;;;;;;;5073198;28;19919;-63
2023/01/11 01:00:15;;;;;;;;;;;;;;;;;;5064442;28;19912;-63
2023/01/11 01:02:40;;;;;;;;;;;;;;;;;;5064602;28;20372;-63
2023/01/11 01:05:05;;;;;;;;;;;;;;;;;;5071468;28;19916;-63
2023/01/11 01:07:30;;;;;;;;;;;;;;;;;;5070139;28;19912;-63
2023/01/11 01:09:56;;;;;;;;;;;;;;;;;;5074708;28;19913;-63
2023/01/11 01:15:05;;;;;;;;;;;;;;;;;;5071561;28;19967;-63
2023/01/11 01:17:30;;;;;;;;;;;;;;;;;;5093057;28;19955;-63
2023/01/11 01:19:55;;;;;;;;;;;;;;;;;;5074454;28;19916;-63
2023/01/11 01:22:20;;;;;;;;;;;;;;;;;;5079287;28;19912;-63
2023/01/11 01:24:45;;;;;;;;;;;;;;;;;;5051879;28;19935;-63
2023/01/11 01:27:15;;;;;;;;;;;;;;;;;;5070481;28;19912;-63
2023/01/11 01:29:40;;;;;;;;;;;;;;;;;;5055932;28;19913;-63
2023/01/11 01:32:05;;;;;;;;;;;;;;;;;;5079585;28;20357;-63
2023/01/11 01:34:31;;;;;;;;;;;;;;;;;;5070188;28;19912;-63
2023/01/11 01:36:56;;;;;;;;;;;;;;;;;;5072526;28;19922;-63
2023/01/11 01:39:21;;;;;;;;;;;;;;;;;;5075723;28;19928;-63
2023/01/11 01:41:46;;;;;;;;;;;;;;;;;;5084460;28;20357;-62
2023/01/11 01:44:11;;;;;;;;;;;;;;;;;;5071243;28;19920;-63
2023/01/11 01:46:36;;;;;;;;;;;;;;;;;;5083912;28;19917;-62
2023/01/11 01:49:01;;;;;;;;;;;;;;;;;;5054688;28;19908;-63
2023/01/11 01:51:27;;;;;;;;;;;;;;;;;;5071423;28;19995;-62
2023/01/11 01:53:52;;;;;;;;;;;;;;;;;;5071412;28;19918;-63
2023/01/11 01:56:17;;;;;;;;;;;;;;;;;;5077063;28;20047;-63
2023/01/11 01:58:42;;;;;;;;;;;;;;;;;;5054531;28;19917;-63
2023/01/11 02:03:51;;;;;;;;;;;;;;;;;;5083779;28;19919;-63
2023/01/11 02:06:16;;;;;;;;;;;;;;;;;;5068279;28;19917;-63
2023/01/11 02:08:41;;;;;;;;;;;;;;;;;;5072013;28;19912;-62
2023/01/11 02:11:28;;;;;;;;;;;;;;;;;;5070554;28;19959;-62
2023/01/11 02:13:51;;;;;;;;;;;;;;;;;;5086635;28;20421;-62
2023/01/11 02:16:16;;;;;;;;;;;;;;;;;;5089330;28;19912;-62
2023/01/11 02:18:42;;;;;;;;;;;;;;;;;;5084453;28;19925;-62
2023/01/11 02:21:07;;;;;;;;;;;;;;;;;;5074871;28;19916;-63
2023/01/11 02:23:32;;;;;;;;;;;;;;;;;;5085475;28;19919;-63
2023/01/11 02:25:57;;;;;;;;;;;;;;;;;;5081506;28;19964;-63
2023/01/11 02:28:22;;;;;;;;;;;;;;;;;;5086988;28;19924;-63
2023/01/11 02:30:47;;;;;;;;;;;;;;;;;;5069252;28;19920;-63
2023/01/11 02:33:13;;;;;;;;;;;;;;;;;;5083552;28;19912;-63
2023/01/11 02:35:38;;;;;;;;;;;;;;;;;;5072508;28;19991;-63
2023/01/11 02:38:03;;;;;;;;;;;;;;;;;;5081008;28;19940;-63
2023/01/11 02:40:28;;;;;;;;;;;;;;;;;;5067543;28;19921;-63
2023/01/11 02:45:37;;;;;;;;;;;;;;;;;;5074127;28;19924;-63
2023/01/11 02:48:02;;;;;;;;;;;;;;;;;;5073182;28;19912;-63
2023/01/11 02:50:28;;;;;;;;;;;;;;;;;;5081643;28;19913;-63
2023/01/11 02:52:53;;;;;;;;;;;;;;;;;;5073774;28;19912;-63
2023/01/11 02:55:19;;;;;;;;;;;;;;;;;;5077282;28;19917;-63
2023/01/11 02:57:44;;;;;;;;;;;;;;;;;;5075700;28;19912;-63
2023/01/11 03:00:09;;;;;;;;;;;;;;;;;;5084810;28;20496;-63
2023/01/11 03:02:34;;;;;;;;;;;;;;;;;;5075740;28;20357;-65
2023/01/11 03:04:59;;;;;;;;;;;;;;;;;;5063253;28;20362;-62
2023/01/11 03:07:24;;;;;;;;;;;;;;;;;;5073404;28;19974;-63
2023/01/11 03:09:49;;;;;;;;;;;;;;;;;;5077480;28;20002;-62
2023/01/11 03:14:58;;;;;;;;;;;;;;;;;;5066671;28;19915;-62
2023/01/11 03:17:23;;;;;;;;;;;;;;;;;;5055568;28;19916;-63
2023/01/11 03:19:48;;;;;;;;;;;;;;;;;;5074177;28;19951;-63
2023/01/11 03:22:14;;;;;;;;;;;;;;;;;;5072527;28;19917;-63
2023/01/11 03:24:39;;;;;;;;;;;;;;;;;;5074739;28;20414;-63
2023/01/11 03:27:04;;;;;;;;;;;;;;;;;;5072835;28;20007;-63
2023/01/11 03:29:29;;;;;;;;;;;;;;;;;;5076914;28;19917;-63
2023/01/11 03:31:54;;;;;;;;;;;;;;;;;;5067269;28;19913;-63
2023/01/11 03:34:19;;;;;;;;;;;;;;;;;;5054758;28;19966;-63
2023/01/11 03:36:44;;;;;;;;;;;;;;;;;;5071134;28;19913;-64
2023/01/11 03:39:10;;;;;;;;;;;;;;;;;;5070579;28;19920;-64
2023/01/11 03:41:35;;;;;;;;;;;;;;;;;;5070857;28;19944;-64
2023/01/11 03:44:00;;;;;;;;;;;;;;;;;;5092734;28;19916;-63
2023/01/11 03:46:25;;;;;;;;;;;;;;;;;;5057397;28;19995;-63
2023/01/11 03:48:50;;;;;;;;;;;;;;;;;;5073812;28;19913;-63
2023/01/11 03:51:15;;;;;;;;;;;;;;;;;;5070668;28;19936;-64
2023/01/11 03:53:40;;;;;;;;;;;;;;;;;;5073161;28;20276;-63
2023/01/11 03:56:05;;;;;;;;;;;;;;;;;;5074638;28;20428;-63
2023/01/11 03:58:31;;;;;;;;;;;;;;;;;;5076219;28;20356;-63
2023/01/11 04:00:56;;;;;;;;;;;;;;;;;;5074000;28;19917;-63
2023/01/11 04:03:21;;;;;;;;;;;;;;;;;;5069859;28;20340;-63
2023/01/11 04:05:46;;;;;;;;;;;;;;;;;;5072585;28;19912;-63
2023/01/11 04:08:12;;;;;;;;;;;;;;;;;;5075383;28;19919;-64
2023/01/11 04:10:37;;;;;;;;;;;;;;;;;;5073849;28;19939;-64
2023/01/11 04:13:02;;;;;;;;;;;;;;;;;;5076098;28;19912;-64
2023/01/11 04:15:29;;;;;;;;;;;;;;;;;;5073540;28;20265;-63
2023/01/11 04:17:54;;;;;;;;;;;;;;;;;;5074165;28;19914;-64
2023/01/11 04:20:19;;;;;;;;;;;;;;;;;;5056425;28;19930;-63
2023/01/11 04:22:44;;;;;;;;;;;;;;;;;;5068468;28;19920;-64
2023/01/11 04:25:09;;;;;;;;;;;;;;;;;;5043181;28;19920;-64
2023/01/11 04:27:34;;;;;;;;;;;;;;;;;;5073407;28;20284;-64
2023/01/11 04:29:59;;;;;;;;;;;;;;;;;;5072970;28;19913;-63
2023/01/11 04:32:25;;;;;;;;;;;;;;;;;;5090967;28;19918;-64
2023/01/11 04:34:50;;;;;;;;;;;;;;;;;;5084397;28;19916;-63
2023/01/11 04:37:15;;;;;;;;;;;;;;;;;;5069883;28;19919;-64
2023/01/11 04:39:40;;;;;;;;;;;;;;;;;;5073933;28;20010;-63
2023/01/11 04:42:17;;;;;;;;;;;;;;;;;;5086962;28;19926;-64
2023/01/11 04:44:43;;;;;;;;;;;;;;;;;;5074199;28;19958;-64
2023/01/11 04:47:08;;;;;;;;;;;;;;;;;;5061168;28;20319;-63
2023/01/11 04:49:33;;;;;;;;;;;;;;;;;;5061262;28;20284;-63
2023/01/11 04:51:58;;;;;;;;;;;;;;;;;;5088580;28;20360;-63
2023/01/11 04:54:23;;;;;;;;;;;;;;;;;;5078064;28;19912;-64
2023/01/11 04:56:48;;;;;;;;;;;;;;;;;;5072001;28;19962;-63
2023/01/11 04:59:13;;;;;;;;;;;;;;;;;;5080851;28;20351;-64
2023/01/11 05:01:38;;;;;;;;;;;;;;;;;;5079416;28;19912;-64
2023/01/11 05:04:04;;;;;;;;;;;;;;;;;;5070579;28;19920;-64
2023/01/11 05:06:29;;;;;;;;;;;;;;;;;;5052923;28;19961;-64
2023/01/11 05:08:54;;;;;;;;;;;;;;;;;;5073484;28;19912;-64
2023/01/11 05:11:19;;;;;;;;;;;;;;;;;;5075422;28;20130;-62
2023/01/11 05:13:44;;;;;;;;;;;;;;;;;;5072878;28;19917;-63
2023/01/11 05:16:09;;;;;;;;;;;;;;;;;;5071856;28;19959;-62
2023/01/11 05:18:34;;;;;;;;;;;;;;;;;;5072929;28;19913;-63
2023/01/11 05:20:59;;;;;;;;;;;;;;;;;;5082830;28;20301;-62
2023/01/11 05:23:25;;;;;;;;;;;;;;;;;;5076909;28;20346;-63
2023/01/11 05:25:50;;;;;;;;;;;;;;;;;;5057725;28;20004;-62
2023/01/11 05:28:15;;;;;;;;;;;;;;;;;;5072049;28;19921;-63
2023/01/11 05:30:40;;;;;;;;;;;;;;;;;;5083076;28;20003;-63
2023/01/11 05:33:05;;;;;;;;;;;;;;;;;;5080457;28;20284;-63
2023/01/11 05:35:30;;;;;;;;;;;;;;;;;;5081641;28;19912;-63
2023/01/11 05:37:55;;;;;;;;;;;;;;;;;;5068453;28;19962;-63
2023/01/11 05:40:20;;;;;;;;;;;;;;;;;;5067287;28;19971;-63
2023/01/11 05:42:46;;;;;;;;;;;;;;;;;;5073004;28;19947;-64
2023/01/11 05:45:28;;;;;;;;;;;;;;;;;;5055470;28;20197;-64
2023/01/11 05:47:53;;;;;;;;;;;;;;;;;;5070156;28;19943;-63
2023/01/11 05:50:18;;;;;;;;;;;;;;;;;;5072414;28;19966;-63
2023/01/11 05:52:43;;;;;;;;;;;;;;;;;;5072194;28;20360;-64
2023/01/11 05:55:09;;;;;;;;;;;;;;;;;;5070876;28;19912;-63
2023/01/11 05:57:34;;;;;;;;;;;;;;;;;;5068347;28;19917;-63
2023/01/11 05:59:59;;;;;;;;;;;;;;;;;;5070799;28;20273;-63
2023/01/11 06:02:24;;;;;;;;;;;;;;;;;;5075964;28;19923;-63
2023/01/11 06:04:49;;;;;;;;;;;;;;;;;;5061663;28;19965;-63
2023/01/11 06:07:14;;;;;;;;;;;;;;;;;;5066830;28;19913;-63
2023/01/11 06:09:39;;;;;;;;;;;;;;;;;;5082256;28;19941;-63
2023/01/11 06:12:04;;;;;;;;;;;;;;;;;;5065756;28;20004;-63
2023/01/11 06:14:30;;;;;;;;;;;;;;;;;;5063057;28;19917;-63
2023/01/11 06:16:55;;;;;;;;;;;;;;;;;;5073158;28;19927;-63
2023/01/11 06:19:20;;;;;;;;;;;;;;;;;;5070626;28;19924;-63
2023/01/11 06:21:45;;;;;;;;;;;;;;;;;;5076143;28;20411;-63
2023/01/11 06:24:11;;;;;;;;;;;;;;;;;;5063262;28;20011;-63
2023/01/11 06:26:36;;;;;;;;;;;;;;;;;;5074331;28;19917;-63
2023/01/11 06:29:01;;;;;;;;;;;;;;;;;;5079664;28;20360;-62
2023/01/11 06:31:26;;;;;;;;;;;;;;;;;;5095852;28;19919;-62
2023/01/11 06:33:51;;;;;;;;;;;;;;;;;;5096329;28;20372;-63
2023/01/11 06:36:16;;;;;;;;;;;;;;;;;;5080068;28;19912;-62
2023/01/11 06:38:42;;;;;;;;;;;;;;;;;;5074849;28;20293;-62
2023/01/11 06:41:07;;;;;;;;;;;;;;;;;;5070387;28;19962;-63
2023/01/11 06:43:32;;;;;;;;;;;;;;;;;;5075699;28;20332;-62
2023/01/11 06:45:57;;;;;;;;;;;;;;;;;;5075928;28;19909;-63
2023/01/11 06:48:23;;;;;;;;;;;;;;;;;;5070326;28;19913;-63
2023/01/11 06:50:48;;;;;;;;;;;;;;;;;;5069578;28;19962;-63
2023/01/11 06:53:13;;;;;;;;;;;;;;;;;;5068293;28;20316;-63
2023/01/11 06:55:38;;;;;;;;;;;;;;;;;;5066420;28;20456;-63
2023/01/11 06:58:03;;;;;;;;;;;;;;;;;;5073845;28;19920;-63
2023/01/11 07:00:28;;;;;;;;;;;;;;;;;;5073882;28;19921;-63
2023/01/11 07:02:53;;;;;;;;;;;;;;;;;;5074810;28;19912;-63
2023/01/11 07:05:19;;;;;;;;;;;;;;;;;;5065722;28;19917;-62
2023/01/11 07:07:44;;;;;;;;;;;;;;;;;;5075671;28;19935;-64
2023/01/11 07:10:09;;;;;;;;;;;;;;;;;;5073195;28;19919;-63
2023/01/11 07:12:34;;;;;;;;;;;;;;;;;;5076775;28;20387;-63
2023/01/11 07:14:59;;;;;;;;;;;;;;;;;;5084439;28;19982;-63
2023/01/11 07:17:24;;;;;;;;;;;;;;;;;;5075455;28;19919;-63
2023/01/11 07:19:49;;;;;;;;;;;;;;;;;;5075157;28;20478;-63
2023/01/11 07:22:15;;;;;;;;;;;;;;;;;;5074840;28;19908;-63
2023/01/11 07:24:40;;;;;;;;;;;;;;;;;;5074164;28;19913;-63
2023/01/11 07:27:05;;;;;;;;;;;;;;;;;;5075223;28;19912;-63
2023/01/11 07:29:30;;;;;;;;;;;;;;;;;;5075012;28;20007;-63
2023/01/11 07:31:55;;;;;;;;;;;;;;;;;;5074566;28;20747;-63
2023/01/11 07:34:20;;;;;;;;;;;;;;;;;;5075013;28;19968;-64
2023/01/11 07:36:45;;;;;;;;;;;;;;;;;;5071412;28;19970;-64
2023/01/11 07:39:11;;;;;;;;;;;;;;;;;;5074354;28;20367;-63
2023/01/11 07:44:20;;;;;;;;;;;;;;;;;;5074729;28;19978;-64
2023/01/11 07:46:45;;;;;;;;;;;;;;;;;;5074848;28;20380;-64
2023/01/11 07:49:10;;;;;;;;;;;;;;;;;;5066724;28;19919;-64
2023/01/11 07:51:35;;;;;;;;;;;;;;;;;;5054842;28;19920;-63
2023/01/11 07:54:02;;;;;;;;;;;;;;;;;;5082263;28;20005;-63
2023/01/11 07:56:27;;;;;;;;;;;;;;;;;;5069769;28;19920;-63
2023/01/11 07:58:52;;;;;;;;;;;;;;;;;;5073503;28;19961;-62
2023/01/11 08:01:18;;;;;;;;;;;;;;;;;;5070469;28;20015;-63
2023/01/11 08:03:43;;;;;;;;;;;;;;;;;;5071959;28;19957;-63
2023/01/11 08:06:08;;;;;;;;;;;;;;;;;;5070981;28;19928;-62
2023/01/11 08:08:33;;;;;;;;;;;;;;;;;;5072867;28;19908;-63
2023/01/11 08:16:26;;;;;;;;;;;;;;;;;;5077641;28;19919;-64
2023/01/11 08:18:52;;;;;;;;;;;;;;;;;;5046675;28;19917;-63
2023/01/11 08:21:17;;;;;;;;;;;;;;;;;;5070908;28;20396;-63
2023/01/11 08:23:42;;;;;;;;;;;;;;;;;;5069488;28;19952;-63
2023/01/11 08:26:08;;;;;;;;;;;;;;;;;;5069117;28;20288;-63
2023/01/11 08:28:33;;;;;;;;;;;;;;;;;;5076718;28;20442;-63
2023/01/11 08:30:58;;;;;;;;;;;;;;;;;;5067114;28;20289;-63
2023/01/11 08:33:24;;;;;;;;;;;;;;;;;;5066739;28;19912;-63
2023/01/11 08:35:49;;;;;;;;;;;;;;;;;;5051835;28;20376;-63
2023/01/11 08:38:14;;;;;;;;;;;;;;;;;;5070793;28;20032;-64
2023/01/11 08:40:39;;;;;;;;;;;;;;;;;;5071230;28;19978;-63
2023/01/11 08:43:04;;;;;;;;;;;;;;;;;;5087303;28;19947;-63
2023/01/11 08:45:30;;;;;;;;;;;;;;;;;;5070380;28;19958;-63
2023/01/11 08:47:55;;;;;;;;;;;;;;;;;;5069270;28;20672;-63
2023/01/11 08:50:20;;;;;;;;;;;;;;;;;;5071620;28;19912;-62
2023/01/11 08:52:45;;;;;;;;;;;;;;;;;;5071691;28;19966;-63
2023/01/11 08:55:10;;;;;;;;;;;;;;;;;;5067010;28;20348;-62
2023/01/11 08:57:35;;;;;;;;;;;;;;;;;;5071075;28;20391;-63
2023/01/11 09:00:01;;;;;;;;;;;;;;;;;;5068406;28;19917;-63
2023/01/11 09:02:26;;;;;;;;;;;;;;;;;;5057534;28;20277;-63
2023/01/11 09:04:51;;;;;;;;;;;;;;;;;;5072207;28;19924;-63
2023/01/11 09:07:16;;;;;;;;;;;;;;;;;;5067726;28;19917;-62
2023/01/11 09:09:41;;;;;;;;;;;;;;;;;;5063024;28;19920;-64
2023/01/11 09:12:06;;;;;;;;;;;;;;;;;;5071214;28;20381;-63
2023/01/11 09:14:32;;;;;;;;;;;;;;;;;;5077349;28;20430;-64
2023/01/11 09:16:57;;;;;;;;;;;;;;;;;;5073389;28;19912;-63
2023/01/11 09:19:22;;;;;;;;;;;;;;;;;;5081266;28;19916;-64
2023/01/11 09:21:47;;;;;;;;;;;;;;;;;;5067268;28;19920;-63
2023/01/11 09:24:12;;;;;;;;;;;;;;;;;;5066026;28;19934;-63
2023/01/11 09:26:38;;;;;;;;;;;;;;;;;;5069393;28;19912;-62
2023/01/11 09:29:03;;;;;;;;;;;;;;;;;;5071790;28;19917;-63
2023/01/11 09:31:29;;;;;;;;;;;;;;;;;;5057858;28;20133;-63
2023/01/11 09:33:54;;;;;;;;;;;;;;;;;;5075855;28;20280;-65
2023/01/11 09:36:20;;;;;;;;;;;;;;;;;;5060939;28;20379;-63
2023/01/11 09:38:47;;;;;;;;;;;;;;;;;;5070264;28;19921;-63
2023/01/11 09:41:12;;;;;;;;;;;;;;;;;;5068797;28;20283;-63
2023/01/11 09:43:38;;;;;;;;;;;;;;;;;;5075591;28;19947;-63
2023/01/11 09:46:05;;;;;;;;;;;;;;;;;;5069443;28;20281;-63
2023/01/11 09:48:32;;;;;;;;;;;;;;;;;;5074189;28;19916;-63
2023/01/11 09:50:57;;;;;;;;;;;;;;;;;;5065792;28;20097;-62
2023/01/11 09:53:26;;;;;;;;;;;;;;;;;;5072946;28;20003;-63
2023/01/11 09:55:53;;;;;;;;;;;;;;;;;;5068506;28;19909;-63
2023/01/11 09:58:21;;;;;;;;;;;;;;;;;;5072584;28;20470;-63
2023/01/11 10:00:46;;;;;;;;;;;;;;;;;;5062745;28;19958;-64
2023/01/11 10:03:12;;;;;;;;;;;;;;;;;;5064033;28;19908;-63
2023/01/11 10:05:37;;;;;;;;;;;;;;;;;;5067952;28;19964;-63
2023/01/11 10:08:02;;;;;;;;;;;;;;;;;;5069518;28;19913;-63
2023/01/11 10:10:27;;;;;;;;;;;;;;;;;;5069883;28;20391;-63
2023/01/11 10:12:55;;;;;;;;;;;;;;;;;;5070455;28;19923;-63
2023/01/11 10:15:22;;;;;;;;;;;;;;;;;;5070842;28;19915;-63
2023/01/11 10:17:47;;;;;;;;;;;;;;;;;;5061977;28;19917;-63
2023/01/11 10:20:12;;;;;;;;;;;;;;;;;;5074817;28;19913;-63
2023/01/11 10:22:39;;;;;;;;;;;;;;;;;;5069870;28;19962;-64
2023/01/11 10:25:09;;;;;;;;;;;;;;;;;;5070012;28;19956;-63
2023/01/11 10:27:35;;;;;;;;;;;;;;;;;;5070811;28;19962;-64
2023/01/11 10:30:21;;;;;;;;;;;;;;;;;;5069991;28;19925;-63
2023/01/11 10:32:56;;;;;;;;;;;;;;;;;;5062376;28;19913;-64
2023/01/11 10:35:44;;;;;;;;;;;;;;;;;;5067410;28;19912;-63
2023/01/11 10:38:26;;;;;;;;;;;;;;;;;;5069487;28;20299;-63
2023/01/11 10:41:13;;;;;;;;;;;;;;;;;;5068073;28;20358;-63
2023/01/11 10:43:38;;;;;;;;;;;;;;;;;;5071965;28;19916;-64
2023/01/11 10:46:04;;;;;;;;;;;;;;;;;;5071245;28;19916;-64
2023/01/11 10:48:30;;;;;;;;;;;;;;;;;;5053903;28;19916;-64
2023/01/11 10:50:56;;;;;;;;;;;;;;;;;;5068205;28;20003;-63
2023/01/11 10:53:21;;;;;;;;;;;;;;;;;;5069096;28;19999;-64
2023/01/11 10:55:46;;;;;;;;;;;;;;;;;;5077817;28;20383;-64
2023/01/11 10:58:11;;;;;;;;;;;;;;;;;;5066019;28;19963;-64
2023/01/11 11:00:36;;;;;;;;;;;;;;;;;;5070987;28;19928;-64
2023/01/11 11:03:01;;;;;;;;;;;;;;;;;;5074016;28;19916;-63
2023/01/11 11:05:26;;;;;;;;;;;;;;;;;;5073163;28;19912;-64
2023/01/11 11:07:52;;;;;;;;;;;;;;;;;;5064029;28;19909;-64
2023/01/11 11:10:17;;;;;;;;;;;;;;;;;;5073887;28;19908;-64
2023/01/11 11:12:42;;;;;;;;;;;;;;;;;;5071345;28;19919;-64
2023/01/11 11:15:08;;;;;;;;;;;;;;;;;;5072353;28;19913;-64
2023/01/11 11:17:33;;;;;;;;;;;;;;;;;;5074232;28;19908;-64
2023/01/11 11:19:58;;;;;;;;;;;;;;;;;;5073412;28;19970;-64
2023/01/11 11:22:23;;;;;;;;;;;;;;;;;;5067447;28;19936;-64
2023/01/11 11:24:48;;;;;;;;;;;;;;;;;;5080806;28;19924;-63
2023/01/11 11:27:14;;;;;;;;;;;;;;;;;;5073613;28;20292;-64
2023/01/11 11:29:39;;;;;;;;;;;;;;;;;;5074696;28;19998;-63
2023/01/11 11:32:04;;;;;;;;;;;;;;;;;;5078601;28;20378;-65
2023/01/11 11:34:29;;;;;;;;;;;;;;;;;;5075818;28;19958;-64
2023/01/11 11:36:54;;;;;;;;;;;;;;;;;;5069642;28;19912;-63
2023/01/11 11:39:20;;;;;;;;;;;;;;;;;;5074223;28;20287;-65
2023/01/11 11:41:45;;;;;;;;;;;;;;;;;;5074069;28;19920;-63
2023/01/11 11:44:10;;;;;;;;;;;;;;;;;;5065858;28;19999;-63
2023/01/11 11:46:36;;;;;;;;;;;;;;;;;;5078578;28;19912;-63
2023/01/11 11:49:01;;;;;;;;;;;;;;;;;;5072605;28;20376;-62
2023/01/11 11:51:26;;;;;;;;;;;;;;;;;;5067713;28;19916;-63
2023/01/11 11:53:53;;;;;;;;;;;;;;;;;;5070717;28;19970;-63
2023/01/11 11:56:18;;;;;;;;;;;;;;;;;;5070782;28;19919;-64
2023/01/11 11:58:44;;;;;;;;;;;;;;;;;;5062505;28;19916;-64
2023/01/11 12:01:09;;;;;;;;;;;;;;;;;;5073475;28;20437;-63
2023/01/11 12:03:34;;;;;;;;;;;;;;;;;;5067524;28;20285;-63
2023/01/11 12:06:00;;;;;;;;;;;;;;;;;;5068552;28;19916;-63
2023/01/11 12:08:25;;;;;;;;;;;;;;;;;;5073153;28;19913;-64
2023/01/11 12:10:50;;;;;;;;;;;;;;;;;;5065265;28;19990;-63
2023/01/11 12:13:15;;;;;;;;;;;;;;;;;;5052986;28;19952;-63
2023/01/11 12:15:40;;;;;;;;;;;;;;;;;;5068189;28;20368;-64
2023/01/11 12:18:05;;;;;;;;;;;;;;;;;;5074082;28;19912;-63
2023/01/11 12:20:30;;;;;;;;;;;;;;;;;;5074038;28;19938;-65
2023/01/11 12:22:56;;;;;;;;;;;;;;;;;;5055427;28;19909;-63
2023/01/11 12:25:21;;;;;;;;;;;;;;;;;;5073202;28;19913;-63
2023/01/11 12:27:46;;;;;;;;;;;;;;;;;;5073946;28;19954;-64
2023/01/11 12:30:11;;;;;;;;;;;;;;;;;;5055343;28;19909;-63
2023/01/11 12:32:36;;;;;;;;;;;;;;;;;;5073840;28;20292;-63
2023/01/11 12:35:01;;;;;;;;;;;;;;;;;;5073377;28;19915;-64
2023/01/11 12:37:26;;;;;;;;;;;;;;;;;;5070664;28;19912;-63
2023/01/11 12:39:51;;;;;;;;;;;;;;;;;;5073361;28;20011;-63
2023/01/11 12:42:17;;;;;;;;;;;;;;;;;;5073425;28;20384;-64
2023/01/11 12:44:42;;;;;;;;;;;;;;;;;;5073503;28;19958;-63
2023/01/11 12:47:08;;;;;;;;;;;;;;;;;;5073694;28;19958;-64
2023/01/11 12:49:33;;;;;;;;;;;;;;;;;;5072973;28;19919;-63
2023/01/11 12:51:58;;;;;;;;;;;;;;;;;;5072985;28;20372;-63
2023/01/11 12:54:24;;;;;;;;;;;;;;;;;;5073094;28;20007;-64
2023/01/11 12:56:49;;;;;;;;;;;;;;;;;;5073308;28;19916;-63
2023/01/11 12:59:14;;;;;;;;;;;;;;;;;;5073456;28;20265;-63
2023/01/11 13:01:39;;;;;;;;;;;;;;;;;;5072049;28;20291;-62
2023/01/11 13:04:04;;;;;;;;;;;;;;;;;;5073498;28;20330;-62
2023/01/11 13:06:30;;;;;;;;;;;;;;;;;;5071006;28;20326;-64
2023/01/11 13:08:55;;;;;;;;;;;;;;;;;;5072961;28;19915;-64
2023/01/11 13:11:33;;;;;;;;;;;;;;;;;;5072737;28;19995;-63
2023/01/11 13:13:59;;;;;;;;;;;;;;;;;;5072056;28;19922;-63
2023/01/11 13:16:24;;;;;;;;;;;;;;;;;;5077303;28;20007;-64
2023/01/11 13:18:49;;;;;;;;;;;;;;;;;;5072842;28;20360;-64
2023/01/11 13:21:14;;;;;;;;;;;;;;;;;;5072630;28;19909;-64
2023/01/11 13:23:40;;;;;;;;;;;;;;;;;;5072362;28;19904;-64
2023/01/11 13:26:05;;;;;;;;;;;;;;;;;;5072114;28;19908;-64
2023/01/11 13:28:31;;;;;;;;;;;;;;;;;;5072790;28;19912;-65
2023/01/11 13:30:56;;;;;;;;;;;;;;;;;;5073005;28;19909;-63
2023/01/11 13:33:21;;;;;;;;;;;;;;;;;;5092862;28;19998;-63
2023/01/11 13:35:48;;;;;;;;;;;;;;;;;;5083908;28;19919;-63
2023/01/11 13:38:13;;;;;;;;;;;;;;;;;;5067725;28;19970;-64
2023/01/11 13:40:38;;;;;;;;;;;;;;;;;;5070873;28;20038;-63
2023/01/11 13:43:04;;;;;;;;;;;;;;;;;;5072504;28;19916;-63
2023/01/11 13:45:29;;;;;;;;;;;;;;;;;;5072580;28;20022;-63
2023/01/11 13:47:54;;;;;;;;;;;;;;;;;;5054589;28;19958;-64
2023/01/11 13:50:19;;;;;;;;;;;;;;;;;;5072508;28;20029;-65
2023/01/11 13:52:44;;;;;;;;;;;;;;;;;;5071289;28;20365;-62
2023/01/11 13:55:09;;;;;;;;;;;;;;;;;;5069851;28;20333;-62
2023/01/11 13:57:34;;;;;;;;;;;;;;;;;;5083205;28;19970;-64
2023/01/11 13:59:59;;;;;;;;;;;;;;;;;;5067431;28;19972;-63
2023/01/11 14:02:25;;;;;;;;;;;;;;;;;;5072038;28;20298;-64
2023/01/11 14:04:50;;;;;;;;;;;;;;;;;;5071987;28;20429;-63
2023/01/11 14:07:16;;;;;;;;;;;;;;;;;;5053477;28;19913;-63
2023/01/11 14:09:41;;;;;;;;;;;;;;;;;;5069793;28;19920;-64
2023/01/11 14:12:06;;;;;;;;;;;;;;;;;;5077024;28;20063;-64
2023/01/11 14:14:31;;;;;;;;;;;;;;;;;;5073654;28;19916;-64
2023/01/11 14:16:56;;;;;;;;;;;;;;;;;;5067092;28;20011;-65
2023/01/11 14:19:21;;;;;;;;;;;;;;;;;;5081610;28;19916;-65
2023/01/11 14:21:46;;;;;;;;;;;;;;;;;;5091681;28;19912;-67
2023/01/11 14:24:11;;;;;;;;;;;;;;;;;;5074467;28;19908;-68
2023/01/11 14:26:37;;;;;;;;;;;;;;;;;;5072801;28;19916;-68
2023/01/11 14:29:02;;;;;;;;;;;;;;;;;;5087040;28;19951;-70
2023/01/11 14:31:27;;;;;;;;;;;;;;;;;;5082187;28;19912;-69
2023/01/11 14:33:52;;;;;;;;;;;;;;;;;;5096557;28;19908;-70
2023/01/11 14:36:17;;;;;;;;;;;;;;;;;;5080098;28;19916;-68
2023/01/11 14:38:42;;;;;;;;;;;;;;;;;;5080198;28;19927;-71
2023/01/11 14:41:08;;;;;;;;;;;;;;;;;;5075614;28;20335;-70
2023/01/11 14:43:33;;;;;;;;;;;;;;;;;;5075923;28;19980;-67
2023/01/11 14:45:58;;;;;;;;;;;;;;;;;;5074453;28;20261;-67
2023/01/11 14:48:23;;;;;;;;;;;;;;;;;;5075766;28;20326;-66
2023/01/11 14:50:48;;;;;;;;;;;;;;;;;;5084977;28;20368;-67
2023/01/11 14:53:13;;;;;;;;;;;;;;;;;;5074870;28;19912;-69
2023/01/11 14:55:43;;;;;;;;;;;;;;;;;;5075461;28;19972;-66
2023/01/11 14:58:08;;;;;;;;;;;;;;;;;;5074983;28;19975;-66
2023/01/11 15:00:33;;;;;;;;;;;;;;;;;;5071043;28;19917;-66
2023/01/11 15:02:59;;;;;;;;;;;;;;;;;;5075375;28;20391;-66
2023/01/11 15:05:24;;;;;;;;;;;;;;;;;;5068811;28;19924;-67
2023/01/11 15:07:49;;;;;;;;;;;;;;;;;;5070002;28;19923;-66
2023/01/11 15:10:14;;;;;;;;;;;;;;;;;;5076848;28;19917;-67
2023/01/11 15:12:39;;;;;;;;;;;;;;;;;;5074272;28;19912;-66
2023/01/11 15:15:04;;;;;;;;;;;;;;;;;;5058970;28;19918;-67
2023/01/11 15:20:13;;;;;;;;;;;;;;;;;;5078179;28;19965;-67
2023/01/11 15:22:38;;;;;;;;;;;;;;;;;;5064705;28;19917;-66
2023/01/11 15:25:03;;;;;;;;;;;;;;;;;;5076158;28;20544;-67
2023/01/11 15:27:29;;;;;;;;;;;;;;;;;;5087314;28;20366;-67
2023/01/11 15:29:54;;;;;;;;;;;;;;;;;;5070380;28;19923;-68
2023/01/11 15:32:19;;;;;;;;;;;;;;;;;;5088535;28;20388;-66
2023/01/11 15:34:44;;;;;;;;;;;;;;;;;;5094878;28;19918;-68
2023/01/11 15:37:09;;;;;;;;;;;;;;;;;;5065275;28;19927;-65
2023/01/11 15:39:34;;;;;;;;;;;;;;;;;;5071726;28;19978;-66
2023/01/11 15:42:03;;;;;;;;;;;;;;;;;;5080942;28;20017;-66
2023/01/11 15:44:28;;;;;;;;;;;;;;;;;;5071609;28;19912;-68
2023/01/11 15:46:53;;;;;;;;;;;;;;;;;;5074369;28;19962;-66
2023/01/11 15:49:18;;;;;;;;;;;;;;;;;;5070194;28;19912;-67
2023/01/11 15:51:43;;;;;;;;;;;;;;;;;;5072430;28;19923;-66
2023/01/11 15:54:08;;;;;;;;;;;;;;;;;;5073344;28;19913;-67
2023/01/11 15:56:34;;;;;;;;;;;;;;;;;;5054949;28;19913;-68
2023/01/11 15:58:59;;;;;;;;;;;;;;;;;;5069464;28;19916;-67
2023/01/11 16:01:27;;;;;;;;;;;;;;;;;;5065293;28;20389;-67
2023/01/11 16:03:53;;;;;;;;;;;;;;;;;;5083890;28;19989;-67
2023/01/11 16:06:18;;;;;;;;;;;;;;;;;;5072798;28;19979;-66
2023/01/11 16:08:43;;;;;;;;;;;;;;;;;;5079847;28;19973;-66
2023/01/11 16:11:08;;;;;;;;;;;;;;;;;;5072213;28;19916;-66
2023/01/11 16:13:33;;;;;;;;;;;;;;;;;;5081015;28;20009;-67
2023/01/11 16:15:58;;;;;;;;;;;;;;;;;;5079885;28;19958;-67
2023/01/11 16:18:24;;;;;;;;;;;;;;;;;;5063938;28;20011;-68
2023/01/11 16:20:49;;;;;;;;;;;;;;;;;;5073195;28;20338;-67
2023/01/11 16:23:14;;;;;;;;;;;;;;;;;;5061413;28;20296;-66
2023/01/11 16:25:39;;;;;;;;;;;;;;;;;;5075916;28;20391;-68
2023/01/11 16:28:04;;;;;;;;;;;;;;;;;;5053985;28;20392;-67
2023/01/11 16:30:29;;;;;;;;;;;;;;;;;;5065048;28;19962;-66
2023/01/11 16:32:55;;;;;;;;;;;;;;;;;;5065936;28;19956;-67
2023/01/11 16:35:20;;;;;;;;;;;;;;;;;;5045121;28;19927;-68
2023/01/11 16:37:45;;;;;;;;;;;;;;;;;;5052441;28;19958;-67
2023/01/11 16:40:11;;;;;;;;;;;;;;;;;;5082263;28;20410;-65
2023/01/11 16:42:36;;;;;;;;;;;;;;;;;;5054136;28;19958;-66
2023/01/11 16:45:01;;;;;;;;;;;;;;;;;;5071221;28;19948;-67
2023/01/11 16:47:26;;;;;;;;;;;;;;;;;;5072509;28;19920;-67
2023/01/11 16:49:51;;;;;;;;;;;;;;;;;;5080635;28;19962;-67
2023/01/11 16:52:16;;;;;;;;;;;;;;;;;;5070012;28;19912;-68
2023/01/11 16:54:41;;;;;;;;;;;;;;;;;;5070594;28;19962;-67
2023/01/11 16:57:06;;;;;;;;;;;;;;;;;;5075118;28;20005;-67
2023/01/11 16:59:33;;;;;;;;;;;;;;;;;;5066019;28;19916;-67
2023/01/11 17:01:58;;;;;;;;;;;;;;;;;;5074220;28;19916;-67